Time;durP1;ratioP1;P1;durP2;ratioP2;P2;SDS_P1;SDS_P2;PMS_P1;PMS_P2;Temp;Humidity;BMP_temperature;BMP_pressure;BME280_temperature;BME280_humidity;BME280_pressure;Samples;Min_cycle;Max_cycle;Signal;HPM_P1;HPM_P2
2021/09/05 00:01:06;;;;;;;6.10;5.17;;;13.00;99.90;;;;;;503026;236;28457;-70
2021/09/05 00:03:08;;;;;;;6.63;5.70;;;12.90;99.90;;;;;;503003;236;28963;-70
2021/09/05 00:05:09;;;;;;;5.13;4.63;;;13.00;99.90;;;;;;503087;236;28781;-70
2021/09/05 00:07:11;;;;;;;5.27;4.47;;;;;;;;;;503091;236;28142;-70
2021/09/05 00:09:13;;;;;;;6.23;5.63;;;13.00;99.90;;;;;;502980;236;27369;-70
2021/09/05 00:11:14;;;;;;;5.60;5.10;;;13.00;99.90;;;;;;503125;236;28632;-70
2021/09/05 00:13:15;;;;;;;4.97;4.57;;;13.00;99.90;;;;;;503080;236;28299;-70
2021/09/05 00:15:16;;;;;;;5.23;4.70;;;13.10;99.90;;;;;;503045;236;28814;-70
2021/09/05 00:17:18;;;;;;;7.00;5.43;;;13.10;99.90;;;;;;503071;236;28752;-70
2021/09/05 00:19:19;;;;;;;5.90;5.10;;;13.10;99.90;;;;;;503035;236;29468;-71
2021/09/05 00:21:20;;;;;;;5.53;5.03;;;13.00;99.90;;;;;;503120;236;28596;-70
2021/09/05 00:23:21;;;;;;;5.10;4.60;;;13.00;99.90;;;;;;503119;236;28384;-70
2021/09/05 00:25:23;;;;;;;5.27;4.77;;;13.00;99.90;;;;;;503053;236;28215;-70
2021/09/05 00:27:24;;;;;;;5.30;4.80;;;13.00;99.90;;;;;;503106;236;28182;-70
2021/09/05 00:29:25;;;;;;;5.30;4.80;;;13.00;99.90;;;;;;503020;236;28519;-70
2021/09/05 00:31:26;;;;;;;5.60;5.07;;;13.00;99.90;;;;;;503078;236;28412;-70
2021/09/05 00:33:28;;;;;;;5.67;5.17;;;13.00;99.90;;;;;;503118;236;28283;-69
2021/09/05 00:35:29;;;;;;;5.57;5.07;;;13.00;99.90;;;;;;503016;236;28153;-70
2021/09/05 00:37:30;;;;;;;5.30;4.80;;;12.90;99.90;;;;;;503077;236;28339;-70
2021/09/05 00:39:31;;;;;;;5.60;5.10;;;12.90;99.90;;;;;;503060;236;28211;-70
2021/09/05 00:41:33;;;;;;;5.97;5.37;;;12.90;99.90;;;;;;503085;236;28610;-70
2021/09/05 00:43:34;;;;;;;5.60;5.10;;;12.80;99.90;;;;;;503084;236;28750;-70
2021/09/05 00:45:35;;;;;;;5.17;4.67;;;12.80;99.90;;;;;;503018;236;28581;-69
2021/09/05 00:47:36;;;;;;;4.63;4.23;;;12.80;99.90;;;;;;503085;236;28189;-70
2021/09/05 00:49:38;;;;;;;5.13;4.63;;;12.80;99.90;;;;;;503094;236;28290;-69
2021/09/05 00:51:39;;;;;;;5.30;4.80;;;12.80;99.90;;;;;;503069;236;28249;-70
2021/09/05 00:53:40;;;;;;;6.17;5.17;;;12.80;99.90;;;;;;503111;236;28174;-69
2021/09/05 00:55:41;;;;;;;6.43;5.73;;;12.80;99.90;;;;;;503009;236;28145;-70
2021/09/05 00:57:44;;;;;;;5.03;4.53;;;12.80;99.90;;;;;;503072;236;28840;-71
2021/09/05 00:59:48;;;;;;;5.67;5.07;;;12.80;99.90;;;;;;502932;236;28365;-70
2021/09/05 01:01:45;;;;;;;5.93;5.27;;;12.80;99.90;;;;;;502731;236;28357;-70
2021/09/05 01:03:46;;;;;;;6.60;4.87;;;12.80;99.90;;;;;;503054;236;28774;-70
2021/09/05 01:05:48;;;;;;;4.70;4.30;;;12.80;99.90;;;;;;503039;236;28714;-70
2021/09/05 01:07:49;;;;;;;5.00;4.53;;;12.80;99.90;;;;;;503062;236;29527;-70
2021/09/05 01:09:50;;;;;;;4.87;4.37;;;12.80;99.90;;;;;;503105;236;28854;-70
2021/09/05 01:11:51;;;;;;;5.20;4.70;;;12.90;99.90;;;;;;503082;236;28146;-71
2021/09/05 01:13:53;;;;;;;4.90;4.40;;;12.90;99.90;;;;;;503105;236;28295;-70
2021/09/05 01:15:54;;;;;;;5.63;4.80;;;12.90;99.90;;;;;;503061;236;28172;-70
2021/09/05 01:17:55;;;;;;;4.87;4.40;;;12.90;99.90;;;;;;503111;236;28190;-70
2021/09/05 01:19:58;;;;;;;5.07;4.67;;;12.80;99.90;;;;;;503137;236;28211;-70
2021/09/05 01:21:59;;;;;;;4.40;4.10;;;12.80;99.90;;;;;;503090;236;28308;-70
2021/09/05 01:24:00;;;;;;;5.33;4.83;;;12.80;99.90;;;;;;503080;236;28642;-70
2021/09/05 01:26:02;;;;;;;5.10;4.60;;;12.80;99.90;;;;;;503096;236;28463;-70
2021/09/05 01:28:03;;;;;;;5.40;4.90;;;12.80;99.90;;;;;;503088;236;29156;-70
2021/09/05 01:30:05;;;;;;;7.63;4.90;;;;;;;;;;503038;236;28881;-70
2021/09/05 01:32:06;;;;;;;5.03;4.57;;;12.80;99.90;;;;;;503016;236;27035;-71
2021/09/05 01:34:08;;;;;;;5.07;4.60;;;12.80;99.90;;;;;;502997;236;28795;-70
2021/09/05 01:36:09;;;;;;;5.40;4.87;;;12.80;99.90;;;;;;502912;236;28306;-70
2021/09/05 01:38:10;;;;;;;5.63;5.13;;;12.70;99.90;;;;;;502814;236;28711;-71
2021/09/05 01:40:11;;;;;;;5.93;5.30;;;12.70;99.90;;;;;;502819;236;29374;-70
2021/09/05 01:42:13;;;;;;;4.77;4.27;;;12.70;99.90;;;;;;502993;236;29080;-70
2021/09/05 01:44:14;;;;;;;5.10;4.60;;;12.60;99.90;;;;;;503062;236;28302;-71
2021/09/05 01:46:15;;;;;;;7.53;5.10;;;12.60;99.90;;;;;;503095;236;28291;-70
2021/09/05 01:48:16;;;;;;;5.67;5.07;;;12.60;99.90;;;;;;503016;236;28377;-70
2021/09/05 01:50:19;;;;;;;6.90;5.13;;;;;;;;;;503055;236;28227;-70
2021/09/05 01:52:20;;;;;;;4.80;4.40;;;12.60;99.90;;;;;;503052;236;27169;-70
2021/09/05 01:54:23;;;;;;;5.30;4.80;;;;;;;;;;503080;236;28910;-70
2021/09/05 01:56:24;;;;;;;5.13;4.63;;;12.60;99.90;;;;;;503070;236;27100;-70
2021/09/05 01:58:25;;;;;;;6.10;5.50;;;12.50;99.90;;;;;;503064;236;28491;-70
2021/09/05 02:00:26;;;;;;;5.43;4.93;;;12.50;99.90;;;;;;503075;236;29158;-70
2021/09/05 02:02:28;;;;;;;5.60;5.03;;;12.50;99.90;;;;;;503028;236;28793;-70
2021/09/05 02:04:29;;;;;;;5.50;5.00;;;12.50;99.90;;;;;;503054;236;28558;-70
2021/09/05 02:06:30;;;;;;;5.20;4.70;;;12.50;99.90;;;;;;503037;236;28772;-70
2021/09/05 02:08:31;;;;;;;5.60;5.10;;;12.50;99.90;;;;;;503074;236;28400;-70
2021/09/05 02:10:33;;;;;;;6.23;5.10;;;12.50;99.90;;;;;;503068;236;28275;-70
2021/09/05 02:12:34;;;;;;;5.83;5.17;;;12.30;99.90;;;;;;503089;236;28191;-70
2021/09/05 02:14:35;;;;;;;9.37;5.00;;;12.30;99.90;;;;;;502976;236;28538;-70
2021/09/05 02:16:36;;;;;;;5.73;5.10;;;12.30;99.90;;;;;;503058;236;28328;-70
2021/09/05 02:18:38;;;;;;;6.67;5.30;;;12.30;99.90;;;;;;503029;236;28903;-70
2021/09/05 02:20:39;;;;;;;5.73;5.20;;;12.30;99.90;;;;;;503072;236;28776;-70
2021/09/05 02:22:40;;;;;;;5.40;4.90;;;12.40;99.90;;;;;;503070;236;28500;-70
2021/09/05 02:24:41;;;;;;;5.70;5.20;;;12.40;99.90;;;;;;503015;236;29223;-71
2021/09/05 02:26:43;;;;;;;5.50;5.00;;;12.40;99.90;;;;;;503038;236;28504;-70
2021/09/05 02:28:44;;;;;;;6.50;5.80;;;12.40;99.90;;;;;;503013;236;28947;-70
2021/09/05 02:30:45;;;;;;;5.17;4.67;;;12.40;99.90;;;;;;503055;236;28463;-69
2021/09/05 02:32:46;;;;;;;6.70;5.27;;;12.40;99.90;;;;;;503093;236;28827;-70
2021/09/05 02:34:48;;;;;;;5.43;4.93;;;12.40;99.90;;;;;;503047;236;28018;-70
2021/09/05 02:36:49;;;;;;;5.63;4.90;;;12.40;99.90;;;;;;503062;236;28021;-70
2021/09/05 02:38:50;;;;;;;5.93;5.37;;;12.40;99.90;;;;;;503052;236;28909;-70
2021/09/05 02:40:51;;;;;;;5.83;5.17;;;12.30;99.90;;;;;;503070;236;28296;-70
2021/09/05 02:42:53;;;;;;;6.43;5.37;;;12.30;99.90;;;;;;503050;236;28512;-70
2021/09/05 02:44:54;;;;;;;5.30;4.80;;;12.30;99.90;;;;;;503028;236;28278;-70
2021/09/05 02:46:55;;;;;;;5.50;4.90;;;12.30;99.90;;;;;;503088;236;29318;-71
2021/09/05 02:48:56;;;;;;;6.20;5.50;;;12.30;99.90;;;;;;503076;236;28661;-70
2021/09/05 02:50:58;;;;;;;5.50;5.00;;;12.30;99.90;;;;;;503066;236;28607;-70
2021/09/05 02:52:59;;;;;;;5.43;4.93;;;12.30;99.90;;;;;;503071;236;28833;-69
2021/09/05 02:55:00;;;;;;;7.20;5.30;;;12.30;99.90;;;;;;503051;236;28409;-70
2021/09/05 02:57:01;;;;;;;6.20;5.50;;;12.30;99.90;;;;;;503062;236;28864;-69
2021/09/05 02:59:03;;;;;;;5.70;5.10;;;12.20;99.90;;;;;;503057;236;28148;-70
2021/09/05 03:01:04;;;;;;;5.90;5.17;;;12.20;99.90;;;;;;503046;236;28236;-71
2021/09/05 03:03:05;;;;;;;5.47;4.97;;;12.20;99.90;;;;;;503076;236;28934;-70
2021/09/05 03:05:06;;;;;;;5.80;5.03;;;12.20;99.90;;;;;;503056;236;28801;-70
2021/09/05 03:07:08;;;;;;;5.73;5.07;;;12.20;99.90;;;;;;503120;236;28456;-71
2021/09/05 03:09:09;;;;;;;5.47;4.97;;;12.20;99.90;;;;;;503102;236;28274;-70
2021/09/05 03:11:10;;;;;;;5.90;5.40;;;12.20;99.90;;;;;;503010;236;29288;-69
2021/09/05 03:13:11;;;;;;;5.50;5.00;;;12.20;99.90;;;;;;503062;236;28847;-70
2021/09/05 03:15:13;;;;;;;8.90;5.00;;;12.20;99.90;;;;;;503043;236;28867;-70
2021/09/05 03:17:14;;;;;;;5.23;4.73;;;12.20;99.90;;;;;;503110;236;28645;-70
2021/09/05 03:19:15;;;;;;;5.13;4.63;;;12.20;99.90;;;;;;503068;236;28217;-70
2021/09/05 03:21:16;;;;;;;5.60;5.10;;;12.20;99.90;;;;;;503049;236;28199;-70
2021/09/05 03:23:18;;;;;;;5.87;5.27;;;12.10;99.90;;;;;;503060;236;28175;-70
2021/09/05 03:25:19;;;;;;;6.43;5.07;;;12.10;99.90;;;;;;503095;236;28400;-70
2021/09/05 03:27:20;;;;;;;5.30;4.80;;;12.00;99.90;;;;;;503082;236;28484;-70
2021/09/05 03:29:21;;;;;;;7.53;5.07;;;11.90;99.90;;;;;;503120;236;28175;-70
2021/09/05 03:31:23;;;;;;;5.53;5.00;;;12.00;99.90;;;;;;503044;236;28149;-70
2021/09/05 03:33:24;;;;;;;5.17;4.67;;;11.90;99.90;;;;;;501430;236;28909;-70
2021/09/05 03:35:25;;;;;;;5.40;4.90;;;11.90;99.90;;;;;;497909;236;28744;-70
2021/09/05 03:37:26;;;;;;;5.40;4.90;;;12.00;99.90;;;;;;496197;236;28848;-69
2021/09/05 03:39:28;;;;;;;5.53;5.03;;;12.00;99.90;;;;;;492377;241;29053;-70
2021/09/05 03:41:29;;;;;;;5.87;5.10;;;11.90;99.90;;;;;;494612;236;28242;-71
2021/09/05 03:43:30;;;;;;;6.53;5.50;;;12.00;99.90;;;;;;497669;236;28184;-71
2021/09/05 03:45:31;;;;;;;6.00;5.30;;;11.90;99.90;;;;;;502940;236;28465;-70
2021/09/05 03:47:33;;;;;;;5.60;5.10;;;11.90;99.90;;;;;;503048;236;28146;-70
2021/09/05 03:49:34;;;;;;;7.60;5.17;;;11.80;99.90;;;;;;503076;236;28357;-70
2021/09/05 03:51:35;;;;;;;7.47;5.97;;;11.70;99.90;;;;;;503032;236;28403;-70
2021/09/05 03:53:36;;;;;;;5.50;5.00;;;11.60;99.90;;;;;;503075;236;28425;-70
2021/09/05 03:55:38;;;;;;;5.70;5.20;;;11.60;99.90;;;;;;503110;236;28386;-70
2021/09/05 03:57:39;;;;;;;5.50;5.00;;;11.60;99.90;;;;;;503060;236;28338;-70
2021/09/05 03:59:40;;;;;;;6.20;5.20;;;11.70;99.90;;;;;;503097;236;28824;-70
2021/09/05 04:01:41;;;;;;;6.90;6.20;;;11.70;99.90;;;;;;503100;236;28374;-71
2021/09/05 04:03:43;;;;;;;6.17;5.57;;;11.70;99.90;;;;;;502725;236;28290;-70
2021/09/05 04:05:44;;;;;;;6.50;5.53;;;11.80;99.90;;;;;;497321;236;28465;-70
2021/09/05 04:08:38;;;;;;;5.43;4.93;;;11.80;99.90;;;;;;492592;241;28140;-70
2021/09/05 04:12:06;;;;;;;5.60;5.00;;;11.90;99.90;;;;;;496974;236;28405;-70
2021/09/05 04:14:07;;;;;;;5.90;5.30;;;11.90;99.90;;;;;;497753;236;28170;-70
2021/09/05 04:16:09;;;;;;;5.73;5.07;;;11.90;99.90;;;;;;498702;236;28304;-70
2021/09/05 04:18:10;;;;;;;6.80;5.60;;;11.80;99.90;;;;;;495162;236;28235;-70
2021/09/05 04:20:11;;;;;;;5.07;4.67;;;11.80;99.90;;;;;;502563;236;29007;-71
2021/09/05 04:22:12;;;;;;;5.73;5.13;;;11.70;99.90;;;;;;497978;236;28761;-70
2021/09/05 04:24:14;;;;;;;5.63;5.07;;;11.60;99.90;;;;;;503061;236;28710;-70
2021/09/05 04:26:15;;;;;;;5.33;4.83;;;11.50;99.90;;;;;;495624;236;28669;-70
2021/09/05 04:28:16;;;;;;;5.60;5.10;;;11.50;99.90;;;;;;493906;240;28248;-70
2021/09/05 04:30:17;;;;;;;5.90;5.30;;;11.40;99.90;;;;;;494208;240;28317;-70
2021/09/05 04:32:20;;;;;;;6.20;5.03;;;11.40;99.90;;;;;;494172;240;28807;-70
2021/09/05 04:34:20;;;;;;;6.00;5.40;;;11.40;99.90;;;;;;498060;236;28674;-70
2021/09/05 04:36:21;;;;;;;7.03;5.70;;;11.40;99.90;;;;;;502266;236;28717;-70
2021/09/05 04:38:23;;;;;;;5.80;5.20;;;11.40;99.90;;;;;;502609;236;28779;-70
2021/09/05 04:40:24;;;;;;;6.87;6.27;;;11.50;99.90;;;;;;497704;236;27995;-70
2021/09/05 04:42:25;;;;;;;6.90;5.10;;;11.60;99.90;;;;;;496368;236;28175;-70
2021/09/05 04:44:26;;;;;;;8.03;5.50;;;11.60;99.90;;;;;;497230;236;28024;-71
2021/09/05 04:46:28;;;;;;;6.13;5.47;;;11.60;99.90;;;;;;494409;236;28488;-70
2021/09/05 04:48:29;;;;;;;6.00;5.50;;;11.60;99.90;;;;;;497201;236;28311;-71
2021/09/05 04:50:30;;;;;;;5.80;5.30;;;11.60;99.90;;;;;;497308;236;28281;-70
2021/09/05 04:52:31;;;;;;;7.07;6.37;;;11.60;99.90;;;;;;501127;236;28055;-70
2021/09/05 04:54:33;;;;;;;6.47;5.57;;;11.60;99.90;;;;;;498004;236;28381;-70
2021/09/05 04:56:34;;;;;;;5.70;5.20;;;11.60;99.90;;;;;;494166;240;28606;-70
2021/09/05 04:58:35;;;;;;;5.60;5.10;;;11.50;99.90;;;;;;494174;240;28710;-70
2021/09/05 05:00:36;;;;;;;6.37;5.73;;;11.60;99.90;;;;;;494190;240;28535;-70
2021/09/05 05:02:38;;;;;;;6.10;5.50;;;11.60;99.90;;;;;;494195;240;28871;-70
2021/09/05 05:04:39;;;;;;;5.77;5.20;;;11.60;99.90;;;;;;498064;236;28327;-70
2021/09/05 05:06:40;;;;;;;5.57;5.07;;;11.60;99.90;;;;;;502983;236;28369;-70
2021/09/05 05:08:41;;;;;;;6.13;5.53;;;11.70;99.90;;;;;;494888;236;28185;-70
2021/09/05 05:10:43;;;;;;;6.00;5.40;;;11.70;99.90;;;;;;492402;241;28185;-71
2021/09/05 05:12:44;;;;;;;6.57;5.27;;;11.70;99.90;;;;;;492588;241;28395;-70
2021/09/05 05:14:45;;;;;;;5.87;5.27;;;11.70;99.90;;;;;;494759;236;28253;-70
2021/09/05 05:16:46;;;;;;;5.90;5.33;;;11.70;99.90;;;;;;495954;236;28546;-70
2021/09/05 05:18:48;;;;;;;9.43;5.50;;;11.80;99.90;;;;;;503054;236;28398;-70
2021/09/05 05:20:49;;;;;;;6.13;5.53;;;11.80;99.90;;;;;;499087;236;28812;-70
2021/09/05 05:22:50;;;;;;;6.30;5.70;;;11.90;99.90;;;;;;495954;236;29177;-70
2021/09/05 05:24:51;;;;;;;5.30;4.80;;;12.00;99.90;;;;;;503045;236;28690;-70
2021/09/05 05:26:53;;;;;;;5.73;5.10;;;12.20;99.90;;;;;;503039;236;28163;-69
2021/09/05 05:28:55;;;;;;;5.77;5.13;;;;;;;;;;503102;236;27924;-70
2021/09/05 05:30:56;;;;;;;6.07;5.30;;;12.30;99.90;;;;;;503038;236;26992;-70
2021/09/05 05:32:58;;;;;;;6.30;5.60;;;12.50;99.90;;;;;;503049;236;29186;-70
2021/09/05 05:34:59;;;;;;;6.77;5.93;;;12.60;99.90;;;;;;501107;236;28504;-70
2021/09/05 05:37:03;;;;;;;7.30;5.80;;;12.60;99.90;;;;;;501598;236;28776;-70
2021/09/05 05:39:01;;;;;;;6.37;5.80;;;12.60;99.90;;;;;;498143;236;28866;-70
2021/09/05 05:41:03;;;;;;;5.30;4.87;;;12.70;99.90;;;;;;497113;236;28496;-71
2021/09/05 05:43:04;;;;;;;6.77;5.60;;;12.70;99.90;;;;;;492841;236;28336;-70
2021/09/05 05:45:05;;;;;;;6.63;5.87;;;12.70;99.90;;;;;;497370;236;28565;-70
2021/09/05 05:47:06;;;;;;;7.63;6.40;;;12.70;99.90;;;;;;494822;236;28072;-70
2021/09/05 05:49:08;;;;;;;7.83;5.67;;;12.70;99.90;;;;;;502879;236;28888;-70
2021/09/05 05:51:09;;;;;;;8.87;5.60;;;12.60;99.90;;;;;;502592;236;28308;-70
2021/09/05 05:53:10;;;;;;;5.93;5.40;;;12.20;99.90;;;;;;497431;236;28117;-70
2021/09/05 05:55:11;;;;;;;6.27;5.70;;;11.90;99.90;;;;;;492359;241;28589;-70
2021/09/05 05:57:14;;;;;;;7.13;5.43;;;;;;;;;;492181;241;28892;-70
2021/09/05 05:59:15;;;;;;;5.83;5.03;;;11.80;99.90;;;;;;492342;241;26955;-70
2021/09/05 06:01:16;;;;;;;7.23;5.63;;;11.80;99.90;;;;;;492329;241;28014;-70
2021/09/05 06:03:17;;;;;;;7.60;5.07;;;11.70;99.90;;;;;;492350;241;28491;-70
2021/09/05 06:05:19;;;;;;;5.20;4.70;;;11.70;99.90;;;;;;493070;236;28263;-70
2021/09/05 06:07:20;;;;;;;6.63;5.57;;;11.70;99.90;;;;;;496746;236;28707;-70
2021/09/05 06:09:22;;;;;;;6.20;5.03;;;11.80;99.90;;;;;;493108;236;28994;-70
2021/09/05 06:11:22;;;;;;;6.07;5.30;;;11.90;99.90;;;;;;498564;236;30836;-70
2021/09/05 06:13:24;;;;;;;6.47;5.40;;;12.00;99.90;;;;;;503078;236;27892;-70
2021/09/05 06:15:25;;;;;;;6.23;5.63;;;12.20;99.90;;;;;;502801;236;28374;-70
2021/09/05 06:17:26;;;;;;;5.40;4.80;;;12.30;99.90;;;;;;502972;236;28430;-70
2021/09/05 06:19:27;;;;;;;6.10;5.10;;;12.40;99.90;;;;;;501433;236;28374;-71
2021/09/05 06:21:29;;;;;;;6.10;5.17;;;12.50;99.90;;;;;;499359;236;28783;-72
2021/09/05 06:23:30;;;;;;;5.63;5.13;;;12.60;99.90;;;;;;498624;236;28195;-71
2021/09/05 06:25:31;;;;;;;5.87;5.27;;;12.70;99.90;;;;;;497024;236;28846;-71
2021/09/05 06:27:32;;;;;;;6.03;5.47;;;12.80;99.90;;;;;;494141;240;28410;-72
2021/09/05 06:29:34;;;;;;;6.37;5.77;;;12.90;99.90;;;;;;494168;240;28732;-72
2021/09/05 06:31:35;;;;;;;5.33;4.73;;;13.00;99.90;;;;;;494181;240;28911;-71
2021/09/05 06:33:36;;;;;;;5.40;4.90;;;13.10;99.90;;;;;;494161;240;28681;-72
2021/09/05 06:35:37;;;;;;;5.60;5.10;;;13.20;99.90;;;;;;495867;236;28484;-71
2021/09/05 06:37:39;;;;;;;5.33;4.83;;;13.30;99.90;;;;;;500416;236;28111;-71
2021/09/05 06:39:40;;;;;;;5.83;5.20;;;13.40;99.90;;;;;;496018;236;28266;-69
2021/09/05 06:41:41;;;;;;;5.40;4.67;;;13.50;99.90;;;;;;497696;236;28188;-72
2021/09/05 06:43:43;;;;;;;5.90;4.93;;;13.60;99.90;;;;;;500085;236;28275;-70
2021/09/05 06:45:44;;;;;;;5.67;5.17;;;13.70;99.90;;;;;;500325;236;28177;-69
2021/09/05 06:47:45;;;;;;;6.73;5.10;;;13.80;99.90;;;;;;502993;236;28369;-73
2021/09/05 06:49:46;;;;;;;5.17;4.67;;;14.00;99.90;;;;;;499693;236;28425;-71
2021/09/05 06:51:48;;;;;;;5.77;5.17;;;14.10;99.90;;;;;;500977;236;28534;-72
2021/09/05 06:53:49;;;;;;;6.07;5.47;;;14.30;99.90;;;;;;502649;236;28768;-71
2021/09/05 06:55:50;;;;;;;5.43;4.93;;;14.50;99.90;;;;;;500209;236;29398;-72
2021/09/05 06:57:51;;;;;;;6.20;5.60;;;14.60;99.90;;;;;;502940;236;28733;-70
2021/09/05 06:59:53;;;;;;;5.90;5.33;;;14.70;99.90;;;;;;502857;236;28769;-70
2021/09/05 07:01:54;;;;;;;6.37;5.67;;;14.80;99.90;;;;;;503029;236;28835;-70
2021/09/05 07:03:55;;;;;;;6.30;5.70;;;14.90;99.90;;;;;;501983;236;28795;-70
2021/09/05 07:05:57;;;;;;;7.10;5.93;;;15.00;99.90;;;;;;501293;236;28448;-72
2021/09/05 07:07:58;;;;;;;7.40;5.77;;;15.00;99.90;;;;;;497676;236;28907;-72
2021/09/05 07:09:59;;;;;;;6.40;5.80;;;15.10;99.90;;;;;;497571;236;28759;-71
2021/09/05 07:12:00;;;;;;;6.20;5.27;;;15.10;99.90;;;;;;497677;236;28816;-72
2021/09/05 07:14:02;;;;;;;6.90;5.43;;;15.20;99.90;;;;;;491893;236;28883;-72
2021/09/05 07:16:03;;;;;;;6.80;6.10;;;15.20;99.90;;;;;;491916;242;28715;-71
2021/09/05 07:18:04;;;;;;;7.10;5.93;;;15.20;99.90;;;;;;491917;242;29329;-72
2021/09/05 07:20:05;;;;;;;6.50;5.80;;;15.30;99.90;;;;;;491835;242;29190;-71
2021/09/05 07:22:07;;;;;;;8.87;6.40;;;15.40;99.90;;;;;;491862;242;29372;-72
2021/09/05 07:24:08;;;;;;;7.50;6.47;;;15.50;99.90;;;;;;491806;236;30060;-71
2021/09/05 07:26:09;;;;;;;9.20;7.07;;;15.60;99.90;;;;;;500502;236;28754;-69
2021/09/05 07:28:10;;;;;;;9.20;7.50;;;15.80;99.90;;;;;;497600;236;28944;-69
2021/09/05 07:30:12;;;;;;;11.30;8.33;;;15.80;99.90;;;;;;503067;236;28678;-69
2021/09/05 07:32:13;;;;;;;11.13;7.80;;;15.90;99.90;;;;;;503002;236;28748;-71
2021/09/05 07:34:14;;;;;;;13.40;8.73;;;15.90;99.90;;;;;;503057;236;28667;-71
2021/09/05 07:36:15;;;;;;;12.43;9.67;;;16.00;99.90;;;;;;500169;236;28790;-71
2021/09/05 07:38:17;;;;;;;11.47;9.40;;;16.00;99.90;;;;;;501838;236;29219;-71
2021/09/05 07:40:19;;;;;;;11.00;9.40;;;16.00;99.90;;;;;;498435;236;29265;-71
2021/09/05 07:42:19;;;;;;;13.97;9.43;;;16.00;99.90;;;;;;498260;236;29312;-71
2021/09/05 07:44:20;;;;;;;12.23;9.57;;;16.00;99.90;;;;;;501088;236;29416;-72
2021/09/05 07:46:22;;;;;;;11.40;8.33;;;15.90;99.90;;;;;;496308;236;28758;-71
2021/09/05 07:48:23;;;;;;;14.33;9.43;;;16.00;99.90;;;;;;495965;236;28858;-72
2021/09/05 07:50:24;;;;;;;11.60;9.40;;;16.00;99.90;;;;;;501716;236;28744;-71
2021/09/05 07:52:26;;;;;;;14.00;9.27;;;16.10;99.90;;;;;;497649;236;28803;-71
2021/09/05 07:54:28;;;;;;;11.60;9.23;;;16.20;99.90;;;;;;492322;241;28978;-71
2021/09/05 07:56:29;;;;;;;11.50;8.27;;;16.30;99.90;;;;;;492339;241;28828;-71
2021/09/05 07:58:30;;;;;;;10.90;9.13;;;16.40;99.90;;;;;;492305;241;29327;-72
2021/09/05 08:00:32;;;;;;;9.97;8.47;;;16.50;99.90;;;;;;492336;241;29241;-72
2021/09/05 08:02:33;;;;;;;10.50;8.30;;;16.70;99.90;;;;;;492353;241;29386;-69
2021/09/05 08:04:34;;;;;;;13.53;7.70;;;16.80;99.90;;;;;;492290;241;28785;-70
2021/09/05 08:06:36;;;;;;;11.53;8.13;;;16.90;99.90;;;;;;492322;241;28905;-69
2021/09/05 08:08:37;;;;;;;9.00;8.10;;;17.00;99.90;;;;;;492305;241;28773;-69
2021/09/05 08:10:39;;;;;;;10.40;7.93;;;17.00;99.90;;;;;;492296;241;28824;-72
2021/09/05 08:12:39;;;;;;;10.07;8.20;;;17.00;99.90;;;;;;492942;236;28834;-70
2021/09/05 08:14:41;;;;;;;12.07;8.80;;;17.10;99.90;;;;;;497451;236;28777;-70
2021/09/05 08:16:42;;;;;;;11.50;8.80;;;17.30;99.90;;;;;;496011;236;28900;-71
2021/09/05 08:18:43;;;;;;;10.53;7.50;;;17.30;99.90;;;;;;500663;236;29998;-71
2021/09/05 08:20:44;;;;;;;9.70;7.73;;;17.60;99.90;;;;;;498580;236;29304;-69
2021/09/05 08:22:47;;;;;;;9.10;7.77;;;17.60;99.90;;;;;;501045;236;29251;-70
2021/09/05 08:24:47;;;;;;;10.67;7.77;;;17.80;99.90;;;;;;502652;236;28782;-69
2021/09/05 08:26:48;;;;;;;11.00;8.10;;;17.90;99.90;;;;;;498484;236;28815;-69
2021/09/05 08:28:49;;;;;;;12.43;8.30;;;18.10;99.90;;;;;;494125;236;28801;-72
2021/09/05 08:30:51;;;;;;;9.90;7.30;;;18.30;99.90;;;;;;492282;241;28830;-69
2021/09/05 08:32:52;;;;;;;10.17;8.23;;;18.20;99.90;;;;;;492311;241;28968;-69
2021/09/05 08:34:53;;;;;;;9.97;8.10;;;18.30;99.90;;;;;;492255;241;28894;-71
2021/09/05 08:36:54;;;;;;;9.40;7.90;;;18.40;99.90;;;;;;492217;241;28806;-70
2021/09/05 08:38:56;;;;;;;11.03;7.77;;;18.40;99.90;;;;;;492354;241;29910;-71
2021/09/05 08:40:57;;;;;;;8.97;7.33;;;18.60;99.90;;;;;;492331;241;29232;-71
2021/09/05 08:42:58;;;;;;;10.60;8.37;;;18.60;99.90;;;;;;492296;241;29286;-71
2021/09/05 08:44:59;;;;;;;10.07;7.30;;;18.70;99.90;;;;;;492356;241;28788;-71
2021/09/05 08:47:01;;;;;;;8.70;7.57;;;18.70;99.90;;;;;;492293;241;28890;-71
2021/09/05 08:49:02;;;;;;;9.30;7.90;;;18.90;99.90;;;;;;492376;241;28844;-71
2021/09/05 08:51:03;;;;;;;8.50;7.10;;;18.90;99.90;;;;;;492324;241;28946;-71
2021/09/05 08:53:04;;;;;;;9.13;7.23;;;19.00;99.90;;;;;;492297;241;28953;-71
2021/09/05 08:55:06;;;;;;;9.80;7.20;;;18.90;99.90;;;;;;504164;235;28728;-71
2021/09/05 08:57:07;;;;;;;8.30;7.40;;;19.00;99.90;;;;;;505631;235;28753;-71
2021/09/05 08:59:08;;;;;;;11.00;7.50;;;19.10;99.90;;;;;;505646;235;28703;-71
2021/09/05 09:01:09;;;;;;;9.50;7.10;;;19.10;99.90;;;;;;505642;235;29105;-71
2021/09/05 09:03:11;;;;;;;7.60;6.90;;;19.20;99.90;;;;;;505592;235;29152;-71
2021/09/05 09:05:12;;;;;;;10.93;8.20;;;19.40;99.90;;;;;;505632;235;29895;-69
2021/09/05 09:07:17;;;;;;;9.13;6.47;;;19.40;99.90;;;;;;505670;235;28643;-69
2021/09/05 09:09:14;;;;;;;9.73;7.20;;;19.60;99.90;;;;;;505311;235;28753;-71
2021/09/05 09:11:16;;;;;;;9.80;7.53;;;19.70;99.90;;;;;;505657;235;28680;-71
2021/09/05 09:13:17;;;;;;;8.93;7.00;;;19.80;99.90;;;;;;505617;235;28674;-72
2021/09/05 09:15:18;;;;;;;9.50;7.43;;;19.70;99.90;;;;;;505604;235;28696;-70
2021/09/05 09:17:19;;;;;;;7.63;6.70;;;19.90;99.90;;;;;;505668;235;28685;-70
2021/09/05 09:19:21;;;;;;;7.20;6.40;;;20.00;99.90;;;;;;505611;235;28717;-71
2021/09/05 09:21:22;;;;;;;8.03;7.03;;;19.80;99.90;;;;;;505572;235;28652;-71
2021/09/05 09:23:24;;;;;;;6.33;5.73;;;;;;;;;;502891;235;28667;-71
2021/09/05 09:25:25;;;;;;;6.73;6.03;;;19.80;99.90;;;;;;499865;236;28033;-71
2021/09/05 09:27:27;;;;;;;6.30;5.70;;;19.70;99.90;;;;;;488730;241;29357;-71
2021/09/05 09:29:28;;;;;;;6.23;5.63;;;19.70;99.90;;;;;;491019;241;29372;-69
2021/09/05 09:31:29;;;;;;;10.00;6.73;;;19.70;99.90;;;;;;487065;241;28909;-69
2021/09/05 09:33:30;;;;;;;7.27;6.53;;;20.20;99.90;;;;;;487406;240;29010;-69
2021/09/05 09:35:32;;;;;;;6.93;6.20;;;20.20;99.90;;;;;;481188;244;28893;-71
2021/09/05 09:37:33;;;;;;;6.80;6.10;;;20.40;99.90;;;;;;485025;245;28913;-71
2021/09/05 09:39:34;;;;;;;6.80;6.10;;;20.30;99.90;;;;;;484403;245;28880;-71
2021/09/05 09:41:41;;;;;;;7.30;6.43;;;20.40;99.90;;;;;;485032;245;28907;-70
2021/09/05 09:43:37;;;;;;;6.10;5.50;;;20.50;99.90;;;;;;483995;245;29343;-71
2021/09/05 09:45:38;;;;;;;5.90;5.00;;;20.30;99.90;;;;;;485108;245;29013;-71
2021/09/05 09:47:40;;;;;;;5.87;5.27;;;20.50;99.90;;;;;;484309;245;28985;-71
2021/09/05 09:49:41;;;;;;;7.87;6.50;;;20.30;99.90;;;;;;485021;245;29015;-71
2021/09/05 09:51:42;;;;;;;7.63;5.63;;;20.70;99.90;;;;;;483218;245;28864;-70
2021/09/05 09:53:44;;;;;;;5.97;5.37;;;20.60;99.90;;;;;;485408;245;28945;-70
2021/09/05 09:55:46;;;;;;;9.53;6.83;;;20.60;99.90;;;;;;484755;240;29022;-70
2021/09/05 09:57:47;;;;;;;6.07;5.47;;;20.90;99.90;;;;;;483025;240;29263;-70
2021/09/05 09:59:48;;;;;;;7.30;6.07;;;20.90;99.90;;;;;;490773;240;29653;-72
2021/09/05 10:01:50;;;;;;;6.43;5.63;;;20.90;99.90;;;;;;482576;245;28952;-70
2021/09/05 10:03:51;;;;;;;5.97;5.37;;;20.90;99.90;;;;;;482431;245;29984;-72
2021/09/05 10:05:52;;;;;;;7.70;5.90;;;20.80;99.90;;;;;;482610;246;29393;-71
2021/09/05 10:07:53;;;;;;;6.40;5.70;;;20.90;99.90;;;;;;482504;245;28959;-72
2021/09/05 10:09:55;;;;;;;8.03;6.00;;;21.20;99.90;;;;;;482704;246;28911;-71
2021/09/05 10:11:56;;;;;;;7.03;5.40;;;21.20;99.90;;;;;;483181;245;28867;-71
2021/09/05 10:13:57;;;;;;;6.63;5.70;;;21.20;99.90;;;;;;483093;245;28824;-71
2021/09/05 10:16:00;;;;;;;6.10;5.50;;;21.30;99.90;;;;;;483210;245;28930;-71
2021/09/05 10:18:00;;;;;;;6.33;5.70;;;21.30;99.90;;;;;;482947;245;28835;-70
2021/09/05 10:20:02;;;;;;;5.90;5.30;;;21.40;99.90;;;;;;483097;245;28860;-69
2021/09/05 10:22:02;;;;;;;6.33;5.40;;;21.40;99.90;;;;;;483111;245;28906;-72
2021/09/05 10:24:03;;;;;;;6.70;5.90;;;21.40;99.90;;;;;;483214;245;28816;-71
2021/09/05 10:26:05;;;;;;;7.63;5.37;;;21.40;99.90;;;;;;483209;246;29303;-71
2021/09/05 10:28:09;;;;;;;5.50;5.00;;;21.60;99.90;;;;;;483249;245;29305;-71
2021/09/05 10:30:07;;;;;;;5.30;4.80;;;21.30;99.90;;;;;;483069;246;29359;-71
2021/09/05 10:32:09;;;;;;;6.60;5.07;;;21.30;99.90;;;;;;483158;246;28927;-71
2021/09/05 10:34:10;;;;;;;4.93;4.53;;;21.30;99.90;;;;;;483228;245;28844;-71